地図

経路データ

SID SEASON NUMBER BASIN SUBBASIN NAME ISO_TIME NATURE LAT LON WMO_WIND WMO_PRES WMO_AGENCY TRACK_TYPE DIST2LAND LANDFALL IFLAG USA_AGENCY USA_ATCF_ID USA_LAT USA_LON USA_RECORD USA_STATUS USA_WIND USA_PRES USA_SSHS USA_R34_NE USA_R34_SE USA_R34_SW USA_R34_NW USA_R50_NE USA_R50_SE USA_R50_SW USA_R50_NW USA_R64_NE USA_R64_SE USA_R64_SW USA_R64_NW USA_POCI USA_ROCI USA_RMW USA_EYE TOKYO_LAT TOKYO_LON TOKYO_GRADE TOKYO_WIND TOKYO_PRES TOKYO_R50_DIR TOKYO_R50_LONG TOKYO_R50_SHORT TOKYO_R30_DIR TOKYO_R30_LONG TOKYO_R30_SHORT TOKYO_LAND CMA_LAT CMA_LON CMA_CAT CMA_WIND CMA_PRES HKO_LAT HKO_LON HKO_CAT HKO_WIND HKO_PRES NEWDELHI_LAT NEWDELHI_LON NEWDELHI_GRADE NEWDELHI_WIND NEWDELHI_PRES NEWDELHI_CI NEWDELHI_DP NEWDELHI_POCI REUNION_LAT REUNION_LON REUNION_TYPE REUNION_WIND REUNION_PRES REUNION_TNUM REUNION_CI REUNION_RMW REUNION_R34_NE REUNION_R34_SE REUNION_R34_SW REUNION_R34_NW REUNION_R50_NE REUNION_R50_SE REUNION_R50_SW REUNION_R50_NW REUNION_R64_NE REUNION_R64_SE REUNION_R64_SW REUNION_R64_NW BOM_LAT BOM_LON BOM_TYPE BOM_WIND BOM_PRES BOM_TNUM BOM_CI BOM_RMW BOM_R34_NE BOM_R34_SE BOM_R34_SW BOM_R34_NW BOM_R50_NE BOM_R50_SE BOM_R50_SW BOM_R50_NW BOM_R64_NE BOM_R64_SE BOM_R64_SW BOM_R64_NW BOM_ROCI BOM_POCI BOM_EYE BOM_POS_METHOD BOM_PRES_METHOD NADI_LAT NADI_LON NADI_CAT NADI_WIND NADI_PRES WELLINGTON_LAT WELLINGTON_LON WELLINGTON_WIND WELLINGTON_PRES DS824_LAT DS824_LON DS824_STAGE DS824_WIND DS824_PRES TD9636_LAT TD9636_LON TD9636_STAGE TD9636_WIND TD9636_PRES TD9635_LAT TD9635_LON TD9635_WIND TD9635_PRES TD9635_ROCI NEUMANN_LAT NEUMANN_LON NEUMANN_CLASS NEUMANN_WIND NEUMANN_PRES MLC_LAT MLC_LON MLC_CLASS MLC_WIND MLC_PRES USA_GUST BOM_GUST BOM_GUST_PER REUNION_GUST REUNION_GUST_PER USA_SEAHGT USA_SEARAD_NE USA_SEARAD_SE USA_SEARAD_SW USA_SEARAD_NW STORM_SPEED STORM_DIR
1990283N23281 1990 102 NA NA MARCO 1990-10-09 12:00:00 TS 22.5000 -79.5000 25 1004 hurdat_atl main 0 0 O_____________ hurdat_atl AL151990 22.5000 -79.5000 TD 25 1004 -1 12 273
1990283N23281 1990 102 NA NA MARCO 1990-10-09 15:00:00 TS 22.5357 -80.1478 main 0 0 P_____________ AL151990 22.5357 -80.1478 TD 27 1003 -1 11 280
1990283N23281 1990 102 NA NA MARCO 1990-10-09 18:00:00 TS 22.7000 -80.7000 30 1002 hurdat_atl main 0 0 O_____________ hurdat_atl AL151990 22.7000 -80.7000 TD 30 1002 -1 10 301
1990283N23281 1990 102 NA NA MARCO 1990-10-09 21:00:00 TS 23.0697 -81.0948 main 11 10 P_____________ AL151990 23.0697 -81.0948 TD 30 1001 -1 10 321
1990283N23281 1990 102 NA NA MARCO 1990-10-10 00:00:00 TS 23.5000 -81.4000 30 1000 hurdat_atl main 45 45 O_____________ hurdat_atl AL151990 23.5000 -81.4000 TD 30 1000 -1 10 323
1990283N23281 1990 102 NA NA MARCO 1990-10-10 03:00:00 TS 23.8225 -81.7227 main 78 78 P_____________ AL151990 23.8225 -81.7227 TD 32 998 -1 8 318
1990283N23281 1990 102 NA NA MARCO 1990-10-10 06:00:00 TS 24.1000 -82.0000 35 996 hurdat_atl main 111 111 O_____________ hurdat_atl AL151990 24.1000 -82.0000 TS 35 996 0 7 318
1990283N23281 1990 102 NA NA MARCO 1990-10-10 09:00:00 TS 24.3500 -82.2376 main 134 134 P_____________ AL151990 24.3500 -82.2376 TS 37 997 0 6 324
1990283N23281 1990 102 NA GM MARCO 1990-10-10 12:00:00 TS 24.6000 -82.4000 40 998 hurdat_atl main 138 133 O_____________ hurdat_atl AL151990 24.6000 -82.4000 TS 40 998 0 6 338
1990283N23281 1990 102 NA GM MARCO 1990-10-10 15:00:00 TS 24.8775 -82.4727 main 135 112 P_____________ AL151990 24.8775 -82.4727 TS 42 996 0 6 352
1990283N23281 1990 102 NA GM MARCO 1990-10-10 18:00:00 TS 25.2000 -82.5000 45 994 hurdat_atl main 112 91 O_____________ hurdat_atl AL151990 25.2000 -82.5000 TS 45 994 0 7 353
1990283N23281 1990 102 NA GM MARCO 1990-10-10 21:00:00 TS 25.5925 -82.5574 main 96 80 P_____________ AL151990 25.5925 -82.5574 TS 47 993 0 8 354
1990283N23281 1990 102 NA GM MARCO 1990-10-11 00:00:00 TS 26.0000 -82.6000 50 993 hurdat_atl main 80 59 O_____________ hurdat_atl AL151990 26.0000 -82.6000 TS 50 993 0 8 356
1990283N23281 1990 102 NA GM MARCO 1990-10-11 03:00:00 TS 26.3500 -82.5927 main 59 31 P_____________ AL151990 26.3500 -82.5927 TS 52 991 0 7 0
1990283N23281 1990 102 NA GM MARCO 1990-10-11 06:00:00 TS 26.7000 -82.6000 55 989 hurdat_atl main 31 22 O_____________ hurdat_atl AL151990 26.7000 -82.6000 TS 55 989 0 8 354
1990283N23281 1990 102 NA GM MARCO 1990-10-11 09:00:00 TS 27.0925 -82.6849 main 22 9 P_____________ AL151990 27.0925 -82.6849 TS 52 991 0 8 347
1990283N23281 1990 102 NA GM MARCO 1990-10-11 12:00:00 TS 27.5000 -82.8000 50 994 hurdat_atl main 19 0 O_____________ hurdat_atl AL151990 27.5000 -82.8000 TS 50 994 0 8 346
1990283N23281 1990 102 NA GM MARCO 1990-10-11 15:00:00 TS 27.9000 -82.9075 main 0 0 P_____________ AL151990 27.9000 -82.9075 TS 45 996 0 8 347
1990283N23281 1990 102 NA GM MARCO 1990-10-11 18:00:00 TS 28.3000 -83.0000 40 998 hurdat_atl main 29 29 O_____________ hurdat_atl AL151990 28.3000 -83.0000 TS 40 998 0 8 349
1990283N23281 1990 102 NA GM MARCO 1990-10-11 21:00:00 TS 28.6400 -83.0724 main 48 11 P_____________ AL151990 28.6400 -83.0724 TS 35 998 0 8 354
1990283N23281 1990 102 NA GM MARCO 1990-10-12 00:00:00 TS 29.1000 -83.1000 30 999 hurdat_atl main 11 0 O_____________ hurdat_atl AL151990 29.1000 -83.1000 TD 30 999 -1 12 1
1990283N23281 1990 102 NA NA MARCO 1990-10-12 03:00:00 TS 29.8625 -83.0579 main 0 0 P_____________ AL151990 29.8625 -83.0579 TD 25 1001 -1 16 3
1990283N23281 1990 102 NA NA MARCO 1990-10-12 06:00:00 TS 30.7000 -83.0000 20 1004 hurdat_atl main 0 0 O_____________ hurdat_atl AL151990 30.7000 -83.0000 TD 20 1004 -1 15 2
1990283N23281 1990 102 NA NA MARCO 1990-10-12 09:00:00 TS 31.3799 -83.0217 main 0 0 P_____________ AL151990 31.3799 -83.0217 TD 20 1004 -1 13 1
1990283N23281 1990 102 NA NA MARCO 1990-10-12 12:00:00 ET 32.0000 -83.0000 20 1005 hurdat_atl main 0 0 O_____________ hurdat_atl AL151990 32.0000 -83.0000 EX 20 1005 -4 13 6
1990283N23281 1990 102 NA NA MARCO 1990-10-12 15:00:00 ET 32.6599 -82.8529 main 0 0 P_____________ AL151990 32.6599 -82.8529 EX 17 1005 -4 13 16
1990283N23281 1990 102 NA NA MARCO 1990-10-12 18:00:00 ET 33.2000 -82.6000 15 1005 hurdat_atl main 0 0 O_____________ hurdat_atl AL151990 33.2000 -82.6000 EX 15 1005 -4 10 30
1990283N23281 1990 102 NA NA MARCO 1990-10-12 21:00:00 ET 33.5327 -82.2500 main 0 0 P_____________ AL151990 33.5327 -82.2500 EX 15 1005 -4 8 49
1990283N23281 1990 102 NA NA MARCO 1990-10-13 00:00:00 ET 33.7000 -81.9000 15 1006 hurdat_atl main 0 0 O_____________ hurdat_atl AL151990 33.7000 -81.9000 EX 15 1006 -4 5 63
1990283N23281 1990 102 NA NA MARCO 1990-10-13 03:00:00 ET 33.7723 -81.6846 main 0 0 P_____________ AL151990 33.7723 -81.6846 EX 15 1006 -4 3 73
1990283N23281 1990 102 NA NA MARCO 1990-10-13 06:00:00 ET 33.8000 -81.5000 15 1007 hurdat_atl main 0 0 O_____________ hurdat_atl AL151990 33.8000 -81.5000 EX 15 1007 -4 4 73
1990283N23281 1990 102 NA NA MARCO 1990-10-13 09:00:00 ET 33.8802 -81.2679 main 0 0 P_____________ AL151990 33.8802 -81.2679 EX 15 1007 -4 5 64
1990283N23281 1990 102 NA NA MARCO 1990-10-13 12:00:00 ET 34.0000 -81.0000 15 1007 hurdat_atl main 0 O_____________ hurdat_atl AL151990 34.0000 -81.0000 EX 15 1007 -4 5 62

IBTrACS Databaseについて

本データベースは、米国NOAAが公開する1842年以降の世界の熱帯低気圧のベストトラックデータアーカイブInternational Best Track Archive for Climate Stewardship (IBTrACS)を、ウェブで閲覧しやすい形式に変換したものです。

最終更新日:2021-10-21